sensor_id;sensor_type;location;lat;lon;timestamp;P1;durP1;ratioP1;P2;durP2;ratioP2
75090;SDS011;63674;48.048;8.306;2022-10-16T00:01:46;10.25;;;3.70;;
75090;SDS011;63674;48.048;8.306;2022-10-16T00:04:15;9.48;;;4.13;;
75090;SDS011;63674;48.048;8.306;2022-10-16T00:06:43;8.63;;;3.70;;
75090;SDS011;63674;48.048;8.306;2022-10-16T00:09:13;7.07;;;2.70;;
75090;SDS011;63674;48.048;8.306;2022-10-16T00:11:41;9.98;;;2.70;;
75090;SDS011;63674;48.048;8.306;2022-10-16T00:14:13;7.32;;;2.72;;
75090;SDS011;63674;48.048;8.306;2022-10-16T00:16:42;6.68;;;2.55;;
75090;SDS011;63674;48.048;8.306;2022-10-16T00:19:11;16.97;;;3.30;;
75090;SDS011;63674;48.048;8.306;2022-10-16T00:21:40;9.63;;;3.00;;
75090;SDS011;63674;48.048;8.306;2022-10-16T00:24:09;6.68;;;2.75;;
75090;SDS011;63674;48.048;8.306;2022-10-16T00:26:38;7.97;;;3.30;;
75090;SDS011;63674;48.048;8.306;2022-10-16T00:29:08;64.10;;;4.30;;
75090;SDS011;63674;48.048;8.306;2022-10-16T00:31:38;12.13;;;3.20;;
75090;SDS011;63674;48.048;8.306;2022-10-16T00:34:07;50.80;;;4.60;;
75090;SDS011;63674;48.048;8.306;2022-10-16T00:36:35;20.73;;;3.47;;
75090;SDS011;63674;48.048;8.306;2022-10-16T00:39:04;8.73;;;3.05;;
75090;SDS011;63674;48.048;8.306;2022-10-16T00:41:33;34.65;;;4.80;;
75090;SDS011;63674;48.048;8.306;2022-10-16T00:44:02;14.77;;;3.23;;
75090;SDS011;63674;48.048;8.306;2022-10-16T00:47:15;10.65;;;3.72;;
75090;SDS011;63674;48.048;8.306;2022-10-16T00:49:51;13.52;;;3.78;;
75090;SDS011;63674;48.048;8.306;2022-10-16T00:52:27;28.90;;;5.75;;
75090;SDS011;63674;48.048;8.306;2022-10-16T00:54:56;28.67;;;8.43;;
75090;SDS011;63674;48.048;8.306;2022-10-16T00:57:26;59.00;;;11.97;;
75090;SDS011;63674;48.048;8.306;2022-10-16T00:59:55;70.65;;;12.77;;
75090;SDS011;63674;48.048;8.306;2022-10-16T01:02:26;41.35;;;10.73;;
75090;SDS011;63674;48.048;8.306;2022-10-16T01:04:55;62.53;;;11.38;;
75090;SDS011;63674;48.048;8.306;2022-10-16T01:07:27;80.32;;;12.05;;
75090;SDS011;63674;48.048;8.306;2022-10-16T01:10:11;44.97;;;10.47;;
75090;SDS011;63674;48.048;8.306;2022-10-16T01:12:55;78.78;;;13.75;;
75090;SDS011;63674;48.048;8.306;2022-10-16T01:15:33;64.25;;;14.15;;
75090;SDS011;63674;48.048;8.306;2022-10-16T01:18:11;97.43;;;16.45;;
75090;SDS011;63674;48.048;8.306;2022-10-16T01:20:45;52.25;;;12.38;;
75090;SDS011;63674;48.048;8.306;2022-10-16T01:23:21;58.40;;;14.03;;
75090;SDS011;63674;48.048;8.306;2022-10-16T01:26:20;61.42;;;12.82;;
75090;SDS011;63674;48.048;8.306;2022-10-16T01:29:13;63.92;;;12.57;;
75090;SDS011;63674;48.048;8.306;2022-10-16T01:31:49;74.90;;;12.27;;
75090;SDS011;63674;48.048;8.306;2022-10-16T01:34:25;49.08;;;12.00;;
75090;SDS011;63674;48.048;8.306;2022-10-16T01:37:04;41.40;;;11.80;;
75090;SDS011;63674;48.048;8.306;2022-10-16T01:39:39;38.85;;;11.88;;
75090;SDS011;63674;48.048;8.306;2022-10-16T01:42:15;30.65;;;10.45;;
75090;SDS011;63674;48.048;8.306;2022-10-16T01:44:50;25.48;;;10.38;;
75090;SDS011;63674;48.048;8.306;2022-10-16T01:47:21;26.33;;;10.13;;
75090;SDS011;63674;48.048;8.306;2022-10-16T01:49:57;40.57;;;11.13;;
75090;SDS011;63674;48.048;8.306;2022-10-16T01:52:31;20.55;;;9.48;;
75090;SDS011;63674;48.048;8.306;2022-10-16T01:55:06;16.52;;;8.68;;
75090;SDS011;63674;48.048;8.306;2022-10-16T01:57:41;16.00;;;8.00;;
75090;SDS011;63674;48.048;8.306;2022-10-16T02:00:16;14.43;;;7.70;;
75090;SDS011;63674;48.048;8.306;2022-10-16T02:02:49;16.30;;;8.43;;
75090;SDS011;63674;48.048;8.306;2022-10-16T02:05:23;23.63;;;10.07;;
75090;SDS011;63674;48.048;8.306;2022-10-16T02:07:57;19.02;;;8.30;;
75090;SDS011;63674;48.048;8.306;2022-10-16T02:10:30;25.15;;;7.43;;
75090;SDS011;63674;48.048;8.306;2022-10-16T02:13:03;28.05;;;9.45;;
75090;SDS011;63674;48.048;8.306;2022-10-16T02:15:37;21.70;;;7.17;;
75090;SDS011;63674;48.048;8.306;2022-10-16T02:18:06;28.67;;;7.75;;
75090;SDS011;63674;48.048;8.306;2022-10-16T02:20:38;31.15;;;8.48;;
75090;SDS011;63674;48.048;8.306;2022-10-16T02:23:18;27.10;;;8.43;;
75090;SDS011;63674;48.048;8.306;2022-10-16T02:25:55;21.05;;;7.65;;
75090;SDS011;63674;48.048;8.306;2022-10-16T02:28:31;16.03;;;8.07;;
75090;SDS011;63674;48.048;8.306;2022-10-16T02:31:10;18.35;;;7.88;;
75090;SDS011;63674;48.048;8.306;2022-10-16T02:33:42;12.00;;;6.28;;
75090;SDS011;63674;48.048;8.306;2022-10-16T02:36:13;10.07;;;6.00;;
75090;SDS011;63674;48.048;8.306;2022-10-16T02:38:42;10.88;;;5.38;;
75090;SDS011;63674;48.048;8.306;2022-10-16T02:41:12;26.80;;;5.73;;
75090;SDS011;63674;48.048;8.306;2022-10-16T02:43:41;25.90;;;7.05;;
75090;SDS011;63674;48.048;8.306;2022-10-16T02:46:12;20.48;;;6.63;;
75090;SDS011;63674;48.048;8.306;2022-10-16T02:48:40;21.35;;;5.75;;
75090;SDS011;63674;48.048;8.306;2022-10-16T02:51:09;20.73;;;6.28;;
75090;SDS011;63674;48.048;8.306;2022-10-16T02:53:37;118.40;;;9.20;;
75090;SDS011;63674;48.048;8.306;2022-10-16T02:56:06;41.28;;;6.93;;
75090;SDS011;63674;48.048;8.306;2022-10-16T02:58:35;67.22;;;6.28;;
75090;SDS011;63674;48.048;8.306;2022-10-16T03:01:03;100.63;;;8.05;;
75090;SDS011;63674;48.048;8.306;2022-10-16T03:03:34;64.03;;;8.27;;
75090;SDS011;63674;48.048;8.306;2022-10-16T03:06:02;184.60;;;11.30;;
75090;SDS011;63674;48.048;8.306;2022-10-16T03:08:32;142.50;;;11.13;;
75090;SDS011;63674;48.048;8.306;2022-10-16T03:11:00;35.53;;;9.55;;
75090;SDS011;63674;48.048;8.306;2022-10-16T03:13:29;113.85;;;12.63;;
75090;SDS011;63674;48.048;8.306;2022-10-16T03:15:58;109.65;;;12.88;;
75090;SDS011;63674;48.048;8.306;2022-10-16T03:18:26;51.87;;;10.00;;
75090;SDS011;63674;48.048;8.306;2022-10-16T03:20:57;37.28;;;8.25;;
75090;SDS011;63674;48.048;8.306;2022-10-16T03:23:25;75.43;;;11.35;;
75090;SDS011;63674;48.048;8.306;2022-10-16T03:25:59;45.92;;;9.27;;
75090;SDS011;63674;48.048;8.306;2022-10-16T03:28:27;78.25;;;10.15;;
75090;SDS011;63674;48.048;8.306;2022-10-16T03:30:56;80.77;;;9.23;;
75090;SDS011;63674;48.048;8.306;2022-10-16T03:33:25;56.90;;;9.13;;
75090;SDS011;63674;48.048;8.306;2022-10-16T03:35:53;110.45;;;10.75;;
75090;SDS011;63674;48.048;8.306;2022-10-16T03:38:23;120.10;;;11.63;;
75090;SDS011;63674;48.048;8.306;2022-10-16T03:40:52;46.20;;;7.88;;
75090;SDS011;63674;48.048;8.306;2022-10-16T03:43:21;60.60;;;10.30;;
75090;SDS011;63674;48.048;8.306;2022-10-16T03:45:49;84.97;;;11.60;;
75090;SDS011;63674;48.048;8.306;2022-10-16T03:48:18;67.40;;;10.63;;
75090;SDS011;63674;48.048;8.306;2022-10-16T03:50:47;52.00;;;9.65;;
75090;SDS011;63674;48.048;8.306;2022-10-16T03:53:16;39.17;;;9.63;;
75090;SDS011;63674;48.048;8.306;2022-10-16T03:55:46;54.00;;;11.97;;
75090;SDS011;63674;48.048;8.306;2022-10-16T03:58:15;74.28;;;13.00;;
75090;SDS011;63674;48.048;8.306;2022-10-16T04:00:44;98.07;;;13.88;;
75090;SDS011;63674;48.048;8.306;2022-10-16T04:03:14;61.35;;;10.05;;
75090;SDS011;63674;48.048;8.306;2022-10-16T04:05:43;78.78;;;9.90;;
75090;SDS011;63674;48.048;8.306;2022-10-16T04:08:12;65.97;;;9.37;;
75090;SDS011;63674;48.048;8.306;2022-10-16T04:10:41;66.30;;;10.75;;
75090;SDS011;63674;48.048;8.306;2022-10-16T04:13:12;64.30;;;12.77;;
75090;SDS011;63674;48.048;8.306;2022-10-16T04:15:40;32.15;;;11.15;;
75090;SDS011;63674;48.048;8.306;2022-10-16T04:18:09;35.05;;;11.48;;
75090;SDS011;63674;48.048;8.306;2022-10-16T04:20:38;101.83;;;14.50;;
75090;SDS011;63674;48.048;8.306;2022-10-16T04:23:08;73.55;;;14.07;;
75090;SDS011;63674;48.048;8.306;2022-10-16T04:25:37;76.85;;;14.93;;
75090;SDS011;63674;48.048;8.306;2022-10-16T04:28:05;84.60;;;15.65;;
75090;SDS011;63674;48.048;8.306;2022-10-16T04:30:37;35.20;;;12.60;;
75090;SDS011;63674;48.048;8.306;2022-10-16T04:33:07;54.80;;;13.13;;
75090;SDS011;63674;48.048;8.306;2022-10-16T04:35:37;48.65;;;14.93;;
75090;SDS011;63674;48.048;8.306;2022-10-16T04:38:05;21.00;;;10.60;;
75090;SDS011;63674;48.048;8.306;2022-10-16T04:40:34;35.55;;;11.90;;
75090;SDS011;63674;48.048;8.306;2022-10-16T04:43:03;38.88;;;13.82;;
75090;SDS011;63674;48.048;8.306;2022-10-16T04:45:32;33.43;;;12.43;;
75090;SDS011;63674;48.048;8.306;2022-10-16T04:48:01;30.40;;;12.95;;
75090;SDS011;63674;48.048;8.306;2022-10-16T04:50:30;37.83;;;12.43;;
75090;SDS011;63674;48.048;8.306;2022-10-16T04:52:59;25.27;;;10.93;;
75090;SDS011;63674;48.048;8.306;2022-10-16T04:55:29;37.00;;;13.85;;
75090;SDS011;63674;48.048;8.306;2022-10-16T04:57:57;36.57;;;12.60;;
75090;SDS011;63674;48.048;8.306;2022-10-16T05:00:26;28.52;;;10.82;;
75090;SDS011;63674;48.048;8.306;2022-10-16T05:02:54;30.23;;;12.00;;
75090;SDS011;63674;48.048;8.306;2022-10-16T05:05:25;21.42;;;10.75;;
75090;SDS011;63674;48.048;8.306;2022-10-16T05:07:53;17.83;;;9.52;;
75090;SDS011;63674;48.048;8.306;2022-10-16T05:10:22;30.17;;;12.60;;
75090;SDS011;63674;48.048;8.306;2022-10-16T05:12:51;17.98;;;9.25;;
75090;SDS011;63674;48.048;8.306;2022-10-16T05:15:19;17.77;;;9.18;;
75090;SDS011;63674;48.048;8.306;2022-10-16T05:17:52;18.17;;;8.18;;
75090;SDS011;63674;48.048;8.306;2022-10-16T05:20:21;24.17;;;10.20;;
75090;SDS011;63674;48.048;8.306;2022-10-16T05:22:51;21.43;;;8.83;;
75090;SDS011;63674;48.048;8.306;2022-10-16T05:25:20;35.25;;;11.85;;
75090;SDS011;63674;48.048;8.306;2022-10-16T05:27:49;35.03;;;12.48;;
75090;SDS011;63674;48.048;8.306;2022-10-16T05:30:18;18.70;;;8.75;;
75090;SDS011;63674;48.048;8.306;2022-10-16T05:32:47;33.55;;;10.40;;
75090;SDS011;63674;48.048;8.306;2022-10-16T05:35:16;13.77;;;7.73;;
75090;SDS011;63674;48.048;8.306;2022-10-16T05:37:47;15.93;;;8.15;;
75090;SDS011;63674;48.048;8.306;2022-10-16T05:40:17;32.25;;;8.68;;
75090;SDS011;63674;48.048;8.306;2022-10-16T05:42:45;13.35;;;6.00;;
75090;SDS011;63674;48.048;8.306;2022-10-16T05:45:14;11.45;;;5.55;;
75090;SDS011;63674;48.048;8.306;2022-10-16T05:47:43;13.57;;;5.80;;
75090;SDS011;63674;48.048;8.306;2022-10-16T05:50:11;15.27;;;7.15;;
75090;SDS011;63674;48.048;8.306;2022-10-16T05:52:40;17.90;;;6.05;;
75090;SDS011;63674;48.048;8.306;2022-10-16T05:55:08;17.80;;;5.72;;
75090;SDS011;63674;48.048;8.306;2022-10-16T05:57:38;23.73;;;6.20;;
75090;SDS011;63674;48.048;8.306;2022-10-16T06:00:07;26.30;;;6.70;;
75090;SDS011;63674;48.048;8.306;2022-10-16T06:02:38;34.65;;;7.22;;
75090;SDS011;63674;48.048;8.306;2022-10-16T06:05:06;26.27;;;7.00;;
75090;SDS011;63674;48.048;8.306;2022-10-16T06:07:35;23.88;;;7.53;;
75090;SDS011;63674;48.048;8.306;2022-10-16T06:10:04;40.38;;;9.02;;
75090;SDS011;63674;48.048;8.306;2022-10-16T06:12:34;21.23;;;6.60;;
75090;SDS011;63674;48.048;8.306;2022-10-16T06:15:04;24.13;;;7.63;;
75090;SDS011;63674;48.048;8.306;2022-10-16T06:17:33;26.48;;;8.20;;
75090;SDS011;63674;48.048;8.306;2022-10-16T06:20:02;39.72;;;9.52;;
75090;SDS011;63674;48.048;8.306;2022-10-16T06:22:31;41.97;;;10.38;;
75090;SDS011;63674;48.048;8.306;2022-10-16T06:24:59;18.13;;;6.33;;
75090;SDS011;63674;48.048;8.306;2022-10-16T06:27:28;20.02;;;8.70;;
75090;SDS011;63674;48.048;8.306;2022-10-16T06:29:57;19.33;;;7.05;;
75090;SDS011;63674;48.048;8.306;2022-10-16T06:32:26;23.58;;;8.77;;
75090;SDS011;63674;48.048;8.306;2022-10-16T06:34:55;15.27;;;7.65;;
75090;SDS011;63674;48.048;8.306;2022-10-16T06:37:24;22.60;;;8.00;;
75090;SDS011;63674;48.048;8.306;2022-10-16T06:39:53;16.92;;;8.63;;
75090;SDS011;63674;48.048;8.306;2022-10-16T06:42:21;17.85;;;9.82;;
75090;SDS011;63674;48.048;8.306;2022-10-16T06:44:50;17.60;;;9.68;;
75090;SDS011;63674;48.048;8.306;2022-10-16T06:47:19;22.90;;;11.55;;
75090;SDS011;63674;48.048;8.306;2022-10-16T06:49:49;22.37;;;10.90;;
75090;SDS011;63674;48.048;8.306;2022-10-16T06:52:19;23.33;;;11.70;;
75090;SDS011;63674;48.048;8.306;2022-10-16T06:54:49;16.80;;;9.93;;
75090;SDS011;63674;48.048;8.306;2022-10-16T06:57:17;20.10;;;9.93;;
75090;SDS011;63674;48.048;8.306;2022-10-16T06:59:46;18.80;;;10.20;;
75090;SDS011;63674;48.048;8.306;2022-10-16T07:02:20;16.97;;;8.70;;
75090;SDS011;63674;48.048;8.306;2022-10-16T07:04:51;23.33;;;12.15;;
75090;SDS011;63674;48.048;8.306;2022-10-16T07:07:19;22.02;;;11.07;;
75090;SDS011;63674;48.048;8.306;2022-10-16T07:09:51;33.42;;;18.00;;
75090;SDS011;63674;48.048;8.306;2022-10-16T07:12:19;35.92;;;18.65;;
75090;SDS011;63674;48.048;8.306;2022-10-16T07:14:48;27.10;;;14.20;;
75090;SDS011;63674;48.048;8.306;2022-10-16T07:17:18;23.15;;;14.10;;
75090;SDS011;63674;48.048;8.306;2022-10-16T07:19:47;31.58;;;18.02;;
75090;SDS011;63674;48.048;8.306;2022-10-16T07:22:17;27.30;;;15.20;;
75090;SDS011;63674;48.048;8.306;2022-10-16T07:24:45;24.88;;;14.15;;
75090;SDS011;63674;48.048;8.306;2022-10-16T07:27:18;23.03;;;14.70;;
75090;SDS011;63674;48.048;8.306;2022-10-16T07:29:48;26.63;;;15.43;;
75090;SDS011;63674;48.048;8.306;2022-10-16T07:32:17;26.13;;;15.25;;
75090;SDS011;63674;48.048;8.306;2022-10-16T07:34:46;31.88;;;18.15;;
75090;SDS011;63674;48.048;8.306;2022-10-16T07:37:14;31.38;;;18.77;;
75090;SDS011;63674;48.048;8.306;2022-10-16T07:39:44;29.20;;;18.50;;
75090;SDS011;63674;48.048;8.306;2022-10-16T07:42:13;28.75;;;17.42;;
75090;SDS011;63674;48.048;8.306;2022-10-16T07:44:42;26.80;;;15.68;;
75090;SDS011;63674;48.048;8.306;2022-10-16T07:47:10;21.35;;;13.02;;
75090;SDS011;63674;48.048;8.306;2022-10-16T07:49:39;20.48;;;10.85;;
75090;SDS011;63674;48.048;8.306;2022-10-16T07:52:08;19.33;;;10.83;;
75090;SDS011;63674;48.048;8.306;2022-10-16T07:54:37;15.57;;;9.30;;
75090;SDS011;63674;48.048;8.306;2022-10-16T07:57:06;18.70;;;10.88;;
75090;SDS011;63674;48.048;8.306;2022-10-16T07:59:35;19.48;;;11.00;;
75090;SDS011;63674;48.048;8.306;2022-10-16T08:02:03;18.27;;;10.75;;
75090;SDS011;63674;48.048;8.306;2022-10-16T08:04:32;16.60;;;10.27;;
75090;SDS011;63674;48.048;8.306;2022-10-16T08:07:00;16.88;;;9.98;;
75090;SDS011;63674;48.048;8.306;2022-10-16T08:09:29;18.85;;;10.15;;
75090;SDS011;63674;48.048;8.306;2022-10-16T08:11:59;32.58;;;15.98;;
75090;SDS011;63674;48.048;8.306;2022-10-16T08:14:28;46.40;;;18.45;;
75090;SDS011;63674;48.048;8.306;2022-10-16T08:16:57;41.23;;;16.87;;
75090;SDS011;63674;48.048;8.306;2022-10-16T08:19:25;28.50;;;13.48;;
75090;SDS011;63674;48.048;8.306;2022-10-16T08:21:54;21.80;;;12.63;;
75090;SDS011;63674;48.048;8.306;2022-10-16T08:24:22;21.38;;;11.52;;
75090;SDS011;63674;48.048;8.306;2022-10-16T08:26:53;18.10;;;10.18;;
75090;SDS011;63674;48.048;8.306;2022-10-16T08:29:23;19.27;;;11.10;;
75090;SDS011;63674;48.048;8.306;2022-10-16T08:31:51;17.33;;;10.35;;
75090;SDS011;63674;48.048;8.306;2022-10-16T08:34:20;17.45;;;10.48;;
75090;SDS011;63674;48.048;8.306;2022-10-16T08:36:48;18.88;;;11.05;;
75090;SDS011;63674;48.048;8.306;2022-10-16T08:39:17;16.35;;;10.70;;
75090;SDS011;63674;48.048;8.306;2022-10-16T08:47:49;15.65;;;9.82;;
75090;SDS011;63674;48.048;8.306;2022-10-16T08:50:36;14.63;;;8.80;;
75090;SDS011;63674;48.048;8.306;2022-10-16T08:53:09;13.07;;;7.47;;
75090;SDS011;63674;48.048;8.306;2022-10-16T08:55:46;12.87;;;6.97;;
75090;SDS011;63674;48.048;8.306;2022-10-16T08:58:19;15.13;;;8.05;;
75090;SDS011;63674;48.048;8.306;2022-10-16T09:00:52;16.60;;;8.85;;
75090;SDS011;63674;48.048;8.306;2022-10-16T09:03:25;15.15;;;8.15;;
75090;SDS011;63674;48.048;8.306;2022-10-16T09:06:26;15.23;;;7.85;;
75090;SDS011;63674;48.048;8.306;2022-10-16T09:09:18;12.93;;;6.83;;
75090;SDS011;63674;48.048;8.306;2022-10-16T09:12:12;17.70;;;10.73;;
75090;SDS011;63674;48.048;8.306;2022-10-16T09:14:57;12.73;;;7.75;;
75090;SDS011;63674;48.048;8.306;2022-10-16T09:17:39;12.70;;;7.53;;
75090;SDS011;63674;48.048;8.306;2022-10-16T09:20:26;11.27;;;6.65;;
75090;SDS011;63674;48.048;8.306;2022-10-16T09:23:16;18.90;;;10.13;;
75090;SDS011;63674;48.048;8.306;2022-10-16T09:25:47;15.75;;;9.25;;
75090;SDS011;63674;48.048;8.306;2022-10-16T09:28:18;14.80;;;8.35;;
75090;SDS011;63674;48.048;8.306;2022-10-16T09:30:47;14.13;;;7.50;;
75090;SDS011;63674;48.048;8.306;2022-10-16T09:33:19;11.68;;;6.80;;
75090;SDS011;63674;48.048;8.306;2022-10-16T09:35:53;11.90;;;6.43;;
75090;SDS011;63674;48.048;8.306;2022-10-16T09:38:26;10.98;;;5.68;;
75090;SDS011;63674;48.048;8.306;2022-10-16T09:40:57;12.43;;;5.95;;
75090;SDS011;63674;48.048;8.306;2022-10-16T09:43:31;10.30;;;5.38;;
75090;SDS011;63674;48.048;8.306;2022-10-16T09:46:06;8.73;;;5.45;;
75090;SDS011;63674;48.048;8.306;2022-10-16T09:48:56;9.13;;;5.10;;
75090;SDS011;63674;48.048;8.306;2022-10-16T09:51:27;10.27;;;5.53;;
75090;SDS011;63674;48.048;8.306;2022-10-16T09:53:59;10.90;;;5.28;;
75090;SDS011;63674;48.048;8.306;2022-10-16T09:56:40;10.95;;;5.32;;
75090;SDS011;63674;48.048;8.306;2022-10-16T09:59:12;11.35;;;4.90;;
75090;SDS011;63674;48.048;8.306;2022-10-16T10:01:45;11.57;;;4.40;;
75090;SDS011;63674;48.048;8.306;2022-10-16T10:04:18;8.90;;;4.20;;
75090;SDS011;63674;48.048;8.306;2022-10-16T10:06:50;4.72;;;1.80;;
75090;SDS011;63674;48.048;8.306;2022-10-16T10:09:22;5.13;;;1.30;;
75090;SDS011;63674;48.048;8.306;2022-10-16T10:11:53;6.13;;;1.40;;
75090;SDS011;63674;48.048;8.306;2022-10-16T10:14:26;5.53;;;1.33;;
75090;SDS011;63674;48.048;8.306;2022-10-16T10:17:09;4.38;;;1.42;;
75090;SDS011;63674;48.048;8.306;2022-10-16T10:19:46;8.82;;;1.65;;
75090;SDS011;63674;48.048;8.306;2022-10-16T10:22:20;4.00;;;1.33;;
75090;SDS011;63674;48.048;8.306;2022-10-16T10:24:54;10.27;;;1.70;;
75090;SDS011;63674;48.048;8.306;2022-10-16T10:27:29;8.07;;;1.40;;
75090;SDS011;63674;48.048;8.306;2022-10-16T10:30:06;5.50;;;1.50;;
75090;SDS011;63674;48.048;8.306;2022-10-16T10:32:45;6.07;;;1.60;;
75090;SDS011;63674;48.048;8.306;2022-10-16T10:35:30;4.45;;;1.50;;
75090;SDS011;63674;48.048;8.306;2022-10-16T10:38:16;5.57;;;1.70;;
75090;SDS011;63674;48.048;8.306;2022-10-16T10:41:00;4.50;;;1.43;;
75090;SDS011;63674;48.048;8.306;2022-10-16T10:43:49;6.07;;;1.55;;
75090;SDS011;63674;48.048;8.306;2022-10-16T10:46:32;7.43;;;2.05;;
75090;SDS011;63674;48.048;8.306;2022-10-16T10:49:16;7.15;;;1.65;;
75090;SDS011;63674;48.048;8.306;2022-10-16T10:52:09;4.72;;;1.70;;
75090;SDS011;63674;48.048;8.306;2022-10-16T10:55:03;5.27;;;1.70;;
75090;SDS011;63674;48.048;8.306;2022-10-16T10:57:50;6.20;;;1.73;;
75090;SDS011;63674;48.048;8.306;2022-10-16T11:00:45;7.93;;;1.80;;
75090;SDS011;63674;48.048;8.306;2022-10-16T11:03:33;5.82;;;1.92;;
75090;SDS011;63674;48.048;8.306;2022-10-16T11:06:29;7.25;;;1.90;;
75090;SDS011;63674;48.048;8.306;2022-10-16T11:09:07;8.37;;;1.83;;
75090;SDS011;63674;48.048;8.306;2022-10-16T11:11:43;8.05;;;1.90;;
75090;SDS011;63674;48.048;8.306;2022-10-16T11:14:18;5.70;;;1.92;;
75090;SDS011;63674;48.048;8.306;2022-10-16T11:16:52;4.30;;;1.50;;
75090;SDS011;63674;48.048;8.306;2022-10-16T11:19:30;7.03;;;2.13;;
75090;SDS011;63674;48.048;8.306;2022-10-16T11:22:09;9.50;;;1.90;;
75090;SDS011;63674;48.048;8.306;2022-10-16T11:24:51;5.43;;;1.70;;
75090;SDS011;63674;48.048;8.306;2022-10-16T11:27:33;7.10;;;1.75;;
75090;SDS011;63674;48.048;8.306;2022-10-16T11:30:13;6.20;;;1.65;;
75090;SDS011;63674;48.048;8.306;2022-10-16T11:32:56;5.78;;;1.83;;
75090;SDS011;63674;48.048;8.306;2022-10-16T11:35:47;4.90;;;1.63;;
75090;SDS011;63674;48.048;8.306;2022-10-16T11:38:25;4.13;;;1.30;;
75090;SDS011;63674;48.048;8.306;2022-10-16T11:41:01;4.80;;;1.40;;
75090;SDS011;63674;48.048;8.306;2022-10-16T11:43:42;5.78;;;1.55;;
75090;SDS011;63674;48.048;8.306;2022-10-16T11:46:20;5.30;;;1.40;;
75090;SDS011;63674;48.048;8.306;2022-10-16T11:48:55;8.00;;;1.30;;
75090;SDS011;63674;48.048;8.306;2022-10-16T11:51:36;4.10;;;1.67;;
75090;SDS011;63674;48.048;8.306;2022-10-16T11:54:14;4.15;;;1.73;;
75090;SDS011;63674;48.048;8.306;2022-10-16T11:56:54;5.13;;;1.30;;
75090;SDS011;63674;48.048;8.306;2022-10-16T11:59:35;3.95;;;1.45;;
75090;SDS011;63674;48.048;8.306;2022-10-16T12:02:20;4.43;;;1.40;;
75090;SDS011;63674;48.048;8.306;2022-10-16T12:05:09;7.75;;;1.48;;
75090;SDS011;63674;48.048;8.306;2022-10-16T12:07:54;4.40;;;1.40;;
75090;SDS011;63674;48.048;8.306;2022-10-16T12:10:34;5.53;;;1.52;;
75090;SDS011;63674;48.048;8.306;2022-10-16T12:16:19;7.63;;;1.60;;
75090;SDS011;63674;48.048;8.306;2022-10-16T12:19:02;5.53;;;1.58;;
75090;SDS011;63674;48.048;8.306;2022-10-16T12:21:39;3.97;;;1.50;;
75090;SDS011;63674;48.048;8.306;2022-10-16T12:24:19;4.53;;;1.73;;
75090;SDS011;63674;48.048;8.306;2022-10-16T12:26:58;4.95;;;1.80;;
75090;SDS011;63674;48.048;8.306;2022-10-16T12:29:32;4.37;;;1.50;;
75090;SDS011;63674;48.048;8.306;2022-10-16T12:32:06;5.60;;;1.55;;
75090;SDS011;63674;48.048;8.306;2022-10-16T12:35:17;4.65;;;1.60;;
75090;SDS011;63674;48.048;8.306;2022-10-16T12:37:49;6.60;;;1.88;;
75090;SDS011;63674;48.048;8.306;2022-10-16T12:40:27;5.25;;;2.50;;
75090;SDS011;63674;48.048;8.306;2022-10-16T12:42:58;4.53;;;2.10;;
75090;SDS011;63674;48.048;8.306;2022-10-16T12:45:41;5.20;;;2.10;;
75090;SDS011;63674;48.048;8.306;2022-10-16T12:48:19;5.75;;;2.25;;
75090;SDS011;63674;48.048;8.306;2022-10-16T12:51:11;5.80;;;2.00;;
75090;SDS011;63674;48.048;8.306;2022-10-16T12:54:00;7.60;;;2.40;;
75090;SDS011;63674;48.048;8.306;2022-10-16T12:56:36;8.13;;;2.70;;
75090;SDS011;63674;48.048;8.306;2022-10-16T12:59:21;7.07;;;2.35;;
75090;SDS011;63674;48.048;8.306;2022-10-16T13:02:18;4.70;;;1.95;;
75090;SDS011;63674;48.048;8.306;2022-10-16T13:05:17;8.48;;;2.20;;
75090;SDS011;63674;48.048;8.306;2022-10-16T13:08:00;6.43;;;2.28;;
75090;SDS011;63674;48.048;8.306;2022-10-16T13:10:52;4.80;;;2.00;;
75090;SDS011;63674;48.048;8.306;2022-10-16T13:16:44;6.80;;;3.08;;
75090;SDS011;63674;48.048;8.306;2022-10-16T13:19:29;6.40;;;2.50;;
75090;SDS011;63674;48.048;8.306;2022-10-16T13:22:12;6.65;;;2.20;;
75090;SDS011;63674;48.048;8.306;2022-10-16T13:25:01;7.27;;;1.77;;
75090;SDS011;63674;48.048;8.306;2022-10-16T13:27:47;5.30;;;1.70;;
75090;SDS011;63674;48.048;8.306;2022-10-16T13:30:23;6.90;;;1.70;;
75090;SDS011;63674;48.048;8.306;2022-10-16T13:32:58;4.93;;;1.70;;
75090;SDS011;63674;48.048;8.306;2022-10-16T13:35:32;4.60;;;1.63;;
75090;SDS011;63674;48.048;8.306;2022-10-16T13:38:03;4.00;;;1.60;;
75090;SDS011;63674;48.048;8.306;2022-10-16T13:40:53;6.03;;;1.58;;
75090;SDS011;63674;48.048;8.306;2022-10-16T13:43:25;4.15;;;1.58;;
75090;SDS011;63674;48.048;8.306;2022-10-16T13:45:59;6.38;;;1.48;;
75090;SDS011;63674;48.048;8.306;2022-10-16T13:48:31;5.60;;;1.50;;
75090;SDS011;63674;48.048;8.306;2022-10-16T13:51:04;4.77;;;1.30;;
75090;SDS011;63674;48.048;8.306;2022-10-16T13:53:39;3.80;;;1.50;;
75090;SDS011;63674;48.048;8.306;2022-10-16T13:56:10;9.02;;;1.60;;
75090;SDS011;63674;48.048;8.306;2022-10-16T13:58:41;4.45;;;1.70;;
75090;SDS011;63674;48.048;8.306;2022-10-16T14:01:15;4.57;;;1.50;;
75090;SDS011;63674;48.048;8.306;2022-10-16T14:04:04;7.23;;;1.50;;
75090;SDS011;63674;48.048;8.306;2022-10-16T14:06:36;4.88;;;1.40;;
75090;SDS011;63674;48.048;8.306;2022-10-16T14:09:14;5.72;;;1.73;;
75090;SDS011;63674;48.048;8.306;2022-10-16T14:11:51;5.35;;;1.52;;
75090;SDS011;63674;48.048;8.306;2022-10-16T14:14:23;4.72;;;1.30;;
75090;SDS011;63674;48.048;8.306;2022-10-16T14:16:54;5.73;;;1.30;;
75090;SDS011;63674;48.048;8.306;2022-10-16T14:19:25;6.13;;;1.90;;
75090;SDS011;63674;48.048;8.306;2022-10-16T14:21:58;5.65;;;1.38;;
75090;SDS011;63674;48.048;8.306;2022-10-16T14:24:31;7.05;;;1.30;;
75090;SDS011;63674;48.048;8.306;2022-10-16T14:30:05;5.53;;;1.13;;
75090;SDS011;63674;48.048;8.306;2022-10-16T14:32:55;6.63;;;1.70;;
75090;SDS011;63674;48.048;8.306;2022-10-16T14:35:27;5.60;;;1.90;;
75090;SDS011;63674;48.048;8.306;2022-10-16T14:38:00;5.25;;;2.00;;
75090;SDS011;63674;48.048;8.306;2022-10-16T14:40:33;6.47;;;2.13;;
75090;SDS011;63674;48.048;8.306;2022-10-16T14:43:04;4.50;;;1.70;;
75090;SDS011;63674;48.048;8.306;2022-10-16T14:45:34;5.40;;;1.60;;
75090;SDS011;63674;48.048;8.306;2022-10-16T14:48:05;8.55;;;4.63;;
75090;SDS011;63674;48.048;8.306;2022-10-16T14:50:45;7.70;;;3.75;;
75090;SDS011;63674;48.048;8.306;2022-10-16T14:53:15;6.90;;;2.10;;
75090;SDS011;63674;48.048;8.306;2022-10-16T14:55:44;5.63;;;1.97;;
75090;SDS011;63674;48.048;8.306;2022-10-16T14:58:15;7.25;;;2.17;;
75090;SDS011;63674;48.048;8.306;2022-10-16T15:00:46;5.85;;;2.30;;
75090;SDS011;63674;48.048;8.306;2022-10-16T15:03:16;7.63;;;2.75;;
75090;SDS011;63674;48.048;8.306;2022-10-16T15:05:45;6.55;;;2.35;;
75090;SDS011;63674;48.048;8.306;2022-10-16T15:08:13;4.43;;;1.63;;
75090;SDS011;63674;48.048;8.306;2022-10-16T15:10:43;7.95;;;1.80;;
75090;SDS011;63674;48.048;8.306;2022-10-16T15:13:12;6.40;;;2.15;;
75090;SDS011;63674;48.048;8.306;2022-10-16T15:15:42;6.47;;;2.55;;
75090;SDS011;63674;48.048;8.306;2022-10-16T15:18:13;4.43;;;1.90;;
75090;SDS011;63674;48.048;8.306;2022-10-16T15:20:47;6.43;;;2.40;;
75090;SDS011;63674;48.048;8.306;2022-10-16T15:23:19;7.35;;;2.25;;
75090;SDS011;63674;48.048;8.306;2022-10-16T15:25:55;4.93;;;2.50;;
75090;SDS011;63674;48.048;8.306;2022-10-16T15:28:24;8.25;;;3.00;;
75090;SDS011;63674;48.048;8.306;2022-10-16T15:31:10;8.73;;;2.10;;